createdAt,value
2022-10-05T00:02:28.914Z,80
2022-10-05T00:07:30.351Z,81
2022-10-05T00:12:32.128Z,81
2022-10-05T00:17:33.938Z,80
2022-10-05T00:22:35.229Z,81
2022-10-05T00:27:37.133Z,82
2022-10-05T00:32:38.917Z,81
2022-10-05T00:37:40.529Z,81
2022-10-05T00:42:41.815Z,81
2022-10-05T00:47:43.486Z,81
2022-10-05T00:52:45.612Z,81
2022-10-05T00:57:47.384Z,82
2022-10-05T01:02:48.839Z,82
2022-10-05T01:07:50.173Z,82
2022-10-05T01:12:52.103Z,82
2022-10-05T01:17:54.180Z,82
2022-10-05T01:22:55.419Z,82
2022-10-05T01:27:57.185Z,81
2022-10-05T01:32:58.538Z,82
2022-10-05T01:38:00.766Z,82
2022-10-05T01:43:02.643Z,81
2022-10-05T01:48:04.288Z,81
2022-10-05T01:53:06.229Z,82
2022-10-05T01:58:07.489Z,82
2022-10-05T02:03:08.940Z,82
2022-10-05T02:08:10.187Z,82
2022-10-05T02:13:12.225Z,82
2022-10-05T02:18:14.221Z,81
2022-10-05T02:23:15.548Z,81
2022-10-05T02:28:17.780Z,82
2022-10-05T02:33:19.655Z,81
2022-10-05T02:38:21.020Z,81
2022-10-05T02:43:22.323Z,82
2022-10-05T02:48:24.250Z,81
2022-10-05T02:53:25.421Z,81
2022-10-05T02:58:26.725Z,81
2022-10-05T03:03:28.454Z,82
2022-10-05T03:08:30.023Z,81
2022-10-05T03:13:31.422Z,82
2022-10-05T03:18:33.111Z,82
2022-10-05T03:23:34.599Z,81
2022-10-05T03:28:36.582Z,81
2022-10-05T03:33:38.120Z,82
2022-10-05T03:38:40.154Z,82
2022-10-05T03:43:42.342Z,81
2022-10-05T03:48:43.729Z,81
2022-10-05T03:53:45.237Z,81
2022-10-05T03:58:47.013Z,81
2022-10-05T04:03:49.124Z,81
2022-10-05T04:08:50.173Z,81
2022-10-05T04:13:52.209Z,82
2022-10-05T04:18:54.356Z,81
2022-10-05T04:23:56.131Z,81
2022-10-05T04:28:57.496Z,81
2022-10-05T04:33:59.438Z,81
2022-10-05T04:39:00.732Z,81
2022-10-05T04:44:02.626Z,81
2022-10-05T04:49:03.999Z,82
2022-10-05T04:54:05.426Z,82
2022-10-05T04:59:07.030Z,82
2022-10-05T05:04:08.857Z,82
2022-10-05T05:09:10.575Z,82
2022-10-05T05:14:12.572Z,82
2022-10-05T05:19:14.731Z,82
2022-10-05T05:19:21.002Z,82
2022-10-05T05:24:22.549Z,82
2022-10-05T05:29:24.064Z,82
2022-10-05T05:34:25.881Z,83
2022-10-05T05:39:27.544Z,83
2022-10-05T05:44:28.766Z,82
2022-10-05T05:49:30.592Z,82
2022-10-05T05:54:32.627Z,83
2022-10-05T05:59:34.226Z,82
2022-10-05T06:04:36.266Z,82
2022-10-05T06:09:37.557Z,81
2022-10-05T06:14:38.973Z,82
2022-10-05T06:19:40.534Z,82
2022-10-05T06:24:42.130Z,82
2022-10-05T06:29:44.229Z,82
2022-10-05T06:34:46.318Z,82
2022-10-05T06:39:48.183Z,81
2022-10-05T06:44:49.980Z,80
2022-10-05T06:49:51.315Z,79
2022-10-05T06:54:52.845Z,78
2022-10-05T06:59:54.548Z,78
2022-10-05T07:04:55.885Z,78
2022-10-05T07:09:57.825Z,78
2022-10-05T07:14:59.317Z,76
2022-10-05T07:20:01.247Z,72
2022-10-05T07:25:03.040Z,70
2022-10-05T07:30:04.595Z,69
2022-10-05T07:35:06.651Z,67
2022-10-05T07:40:07.982Z,64
2022-10-05T07:45:09.965Z,65
2022-10-05T07:50:12.126Z,63
2022-10-05T07:55:14.258Z,62
2022-10-05T08:00:16.285Z,61
2022-10-05T08:05:18.433Z,59
2022-10-05T08:10:19.565Z,56
2022-10-05T08:15:21.352Z,58
2022-10-05T08:20:23.168Z,57
2022-10-05T08:25:24.849Z,55
2022-10-05T08:30:26.711Z,56
2022-10-05T08:35:28.858Z,55
2022-10-05T08:40:30.138Z,56
2022-10-05T08:45:31.400Z,55
2022-10-05T08:50:33.444Z,54
2022-10-05T08:55:35.306Z,55
2022-10-05T09:00:36.617Z,54
2022-10-05T09:05:38.252Z,54
2022-10-05T09:10:40.376Z,52
2022-10-05T09:15:42.445Z,49
2022-10-05T09:20:44.014Z,47
2022-10-05T09:25:45.263Z,45
2022-10-05T09:30:46.864Z,43
2022-10-05T09:35:48.765Z,39
2022-10-05T09:40:50.289Z,38
2022-10-05T09:45:51.584Z,35
2022-10-05T09:50:53.162Z,34
2022-10-05T09:55:54.868Z,32
2022-10-05T10:01:03.563Z,32
2022-10-05T10:05:58.472Z,32
2022-10-05T10:11:00.105Z,31
2022-10-05T10:16:01.974Z,31
2022-10-05T10:21:02.957Z,30
2022-10-05T10:26:04.815Z,30
2022-10-05T10:31:06.918Z,31
2022-10-05T10:36:08.933Z,30
2022-10-05T10:41:10.825Z,30
2022-10-05T10:46:12.809Z,30
2022-10-05T10:51:14.595Z,31
2022-10-05T10:56:16.306Z,31
2022-10-05T11:01:17.767Z,32
2022-10-05T11:06:19.793Z,32
2022-10-05T11:11:21.163Z,33
2022-10-05T11:16:22.665Z,34
2022-10-05T11:21:23.969Z,33
2022-10-05T11:26:25.191Z,33
2022-10-05T11:31:27.040Z,34
2022-10-05T11:36:28.279Z,35
2022-10-05T11:41:30.296Z,36
2022-10-05T11:46:32.319Z,36
2022-10-05T11:51:34.107Z,37
2022-10-05T11:56:35.450Z,38
2022-10-05T12:01:37.189Z,38
2022-10-05T12:06:38.705Z,39
2022-10-05T12:11:40.659Z,39
2022-10-05T12:16:42.231Z,40
2022-10-05T12:21:43.458Z,39
2022-10-05T12:26:45.145Z,40
2022-10-05T12:31:46.886Z,40
2022-10-05T12:37:04.896Z,41
2022-10-05T12:41:50.350Z,41
2022-10-05T12:46:51.567Z,42
2022-10-05T12:51:53.656Z,41
2022-10-05T12:56:55.315Z,42
2022-10-05T13:01:57.473Z,42
2022-10-05T13:06:59.025Z,41
2022-10-05T13:12:00.359Z,41
2022-10-05T13:17:02.185Z,41
2022-10-05T13:32:07.124Z,40
2022-10-05T13:47:11.263Z,40
2022-10-05T13:57:14.001Z,39
2022-10-05T14:02:15.932Z,39
2022-10-05T14:07:17.328Z,40
2022-10-05T14:12:18.473Z,40
2022-10-05T14:17:20.141Z,41
2022-10-05T14:22:21.464Z,41
2022-10-05T14:27:23.511Z,41
2022-10-05T14:32:25.325Z,40
2022-10-05T14:42:28.668Z,40
2022-10-05T14:47:30.152Z,40
2022-10-05T14:52:31.861Z,39
2022-10-05T14:57:33.151Z,39
2022-10-05T15:02:34.968Z,40
2022-10-05T15:07:36.432Z,40
2022-10-05T15:12:38.118Z,40
2022-10-05T15:17:40.257Z,40
2022-10-05T15:22:42.228Z,41
2022-10-05T15:27:43.676Z,41
2022-10-05T15:32:45.335Z,41
2022-10-05T15:37:46.767Z,42
2022-10-05T15:42:47.974Z,42
2022-10-05T15:47:49.231Z,42
2022-10-05T15:52:51.281Z,43
2022-10-05T15:57:52.950Z,44
2022-10-05T16:02:55.009Z,43
2022-10-05T16:07:56.893Z,43
2022-10-05T16:12:58.685Z,41
2022-10-05T16:18:00.809Z,42
2022-10-05T16:23:02.629Z,42
2022-10-05T16:28:05.611Z,42
2022-10-05T16:33:05.558Z,42
2022-10-05T16:38:07.480Z,43
2022-10-05T16:43:08.700Z,44
2022-10-05T16:48:10.664Z,44
2022-10-05T16:53:12.263Z,45
2022-10-05T16:58:14.042Z,46
2022-10-05T17:03:15.973Z,47
2022-10-05T17:08:17.532Z,48
2022-10-05T17:13:18.888Z,49
2022-10-05T17:18:21.212Z,49
2022-10-05T17:23:22.495Z,51
2022-10-05T17:28:24.730Z,52
2022-10-05T17:33:25.691Z,52
2022-10-05T17:38:27.924Z,53
2022-10-05T17:43:29.091Z,55
2022-10-05T17:48:31.021Z,55
2022-10-05T17:53:33.038Z,55
2022-10-05T17:58:34.709Z,55
2022-10-05T18:03:36.094Z,57
2022-10-05T18:08:37.587Z,56
2022-10-05T18:13:38.846Z,57
2022-10-05T18:18:40.523Z,58
2022-10-05T18:23:42.429Z,58
2022-10-05T18:28:43.857Z,58
2022-10-05T18:33:45.667Z,59
2022-10-05T18:38:47.122Z,59
2022-10-05T18:43:49.035Z,59
2022-10-05T18:48:50.824Z,60
2022-10-05T18:53:52.428Z,60
2022-10-05T18:58:56.826Z,60
2022-10-05T19:03:55.701Z,60
2022-10-05T19:08:57.328Z,61
2022-10-05T19:13:58.948Z,61
2022-10-05T19:19:01.040Z,61
2022-10-05T19:24:02.962Z,61
2022-10-05T19:29:04.104Z,61
2022-10-05T19:34:05.377Z,60
2022-10-05T19:39:06.836Z,61
2022-10-05T19:44:08.102Z,61
2022-10-05T19:49:09.355Z,61
2022-10-05T19:54:10.810Z,62
2022-10-05T19:59:12.568Z,62
2022-10-05T20:04:14.020Z,62
2022-10-05T20:09:16.179Z,62
2022-10-05T20:14:17.539Z,63
2022-10-05T20:19:19.012Z,62
2022-10-05T20:24:20.680Z,62
2022-10-05T20:29:22.564Z,61
2022-10-05T20:34:24.407Z,62
2022-10-05T20:39:26.294Z,61
2022-10-05T20:44:27.397Z,61
2022-10-05T20:49:28.591Z,61
2022-10-05T20:54:30.626Z,62
2022-10-05T20:59:32.320Z,62
2022-10-05T21:04:39.986Z,62
2022-10-05T21:09:35.561Z,62
2022-10-05T21:14:36.829Z,62
2022-10-05T21:19:38.866Z,63
2022-10-05T21:24:40.377Z,63
2022-10-05T21:29:41.904Z,63
2022-10-05T21:34:43.110Z,63
2022-10-05T21:39:44.350Z,63
2022-10-05T21:44:45.636Z,64
2022-10-05T21:49:47.292Z,63
2022-10-05T21:54:49.300Z,64
2022-10-05T21:59:50.847Z,64
2022-10-05T22:15:01.961Z,65
2022-10-05T22:20:03.432Z,65
2022-10-05T22:25:05.371Z,65
2022-10-05T22:30:07.063Z,65
2022-10-05T22:35:11.463Z,65
2022-10-05T22:40:10.073Z,65
2022-10-05T22:45:11.259Z,66
2022-10-05T22:50:12.672Z,65
2022-10-05T22:55:14.292Z,66
2022-10-05T23:00:16.331Z,67
2022-10-05T23:05:17.754Z,67
2022-10-05T23:10:19.844Z,67
2022-10-05T23:15:21.514Z,67
2022-10-05T23:20:22.697Z,68
2022-10-05T23:25:24.823Z,68
2022-10-05T23:30:26.294Z,68
2022-10-05T23:35:27.727Z,69
2022-10-05T23:40:29.757Z,68
2022-10-05T23:45:30.981Z,69
2022-10-05T23:50:33.126Z,69
2022-10-05T23:55:34.745Z,69
